sensor_id;sensor_type;location;lat;lon;timestamp;pressure;altitude;pressure_sealevel;temperature;humidity
51178;BME280;37243;49.814;8.652;2022-12-07T00:01:36;100383.16;;;26.85;32.06
51178;BME280;37243;49.814;8.652;2022-12-07T00:04:06;100386.56;;;26.73;31.99
51178;BME280;37243;49.814;8.652;2022-12-07T00:06:37;100380.44;;;26.68;31.78
51178;BME280;37243;49.814;8.652;2022-12-07T00:09:09;100380.63;;;26.63;32.10
51178;BME280;37243;49.814;8.652;2022-12-07T00:11:41;100385.81;;;26.56;32.11
51178;BME280;37243;49.814;8.652;2022-12-07T00:14:12;100383.88;;;26.56;32.35
51178;BME280;37243;49.814;8.652;2022-12-07T00:16:41;100381.31;;;26.51;32.04
51178;BME280;37243;49.814;8.652;2022-12-07T00:19:11;100376.78;;;26.46;32.29
51178;BME280;37243;49.814;8.652;2022-12-07T00:21:40;100373.88;;;26.43;32.34
51178;BME280;37243;49.814;8.652;2022-12-07T00:24:10;100372.09;;;26.38;32.78
51178;BME280;37243;49.814;8.652;2022-12-07T00:26:42;100369.69;;;26.37;32.61
51178;BME280;37243;49.814;8.652;2022-12-07T00:29:14;100367.75;;;26.37;32.16
51178;BME280;37243;49.814;8.652;2022-12-07T00:31:43;100365.13;;;26.41;32.40
51178;BME280;37243;49.814;8.652;2022-12-07T00:34:13;100366.75;;;26.42;32.38
51178;BME280;37243;49.814;8.652;2022-12-07T00:36:42;100356.22;;;26.44;32.33
51178;BME280;37243;49.814;8.652;2022-12-07T00:39:10;100366.91;;;26.45;31.98
51178;BME280;37243;49.814;8.652;2022-12-07T00:41:41;100363.00;;;26.46;32.35
51178;BME280;37243;49.814;8.652;2022-12-07T00:44:10;100356.72;;;26.46;31.94
51178;BME280;37243;49.814;8.652;2022-12-07T00:46:38;100344.91;;;26.45;32.16
51178;BME280;37243;49.814;8.652;2022-12-07T00:49:06;100342.97;;;26.46;32.67
51178;BME280;37243;49.814;8.652;2022-12-07T00:51:34;100338.75;;;26.48;32.56
51178;BME280;37243;49.814;8.652;2022-12-07T00:54:03;100342.63;;;26.47;32.64
51178;BME280;37243;49.814;8.652;2022-12-07T00:56:31;100347.00;;;26.48;32.10
51178;BME280;37243;49.814;8.652;2022-12-07T00:59:03;100337.13;;;26.47;32.32
51178;BME280;37243;49.814;8.652;2022-12-07T01:01:33;100341.00;;;26.46;32.65
51178;BME280;37243;49.814;8.652;2022-12-07T01:04:01;100333.91;;;26.45;32.41
51178;BME280;37243;49.814;8.652;2022-12-07T01:06:30;100336.19;;;26.43;32.17
51178;BME280;37243;49.814;8.652;2022-12-07T01:08:58;100335.38;;;26.43;32.61
51178;BME280;37243;49.814;8.652;2022-12-07T01:11:28;100328.72;;;26.44;32.02
51178;BME280;37243;49.814;8.652;2022-12-07T01:13:59;100336.97;;;26.44;32.55
51178;BME280;37243;49.814;8.652;2022-12-07T01:16:31;100335.03;;;26.44;32.37
51178;BME280;37243;49.814;8.652;2022-12-07T01:19:00;100324.03;;;26.44;32.14
51178;BME280;37243;49.814;8.652;2022-12-07T01:21:31;100321.28;;;26.44;32.55
51178;BME280;37243;49.814;8.652;2022-12-07T01:24:04;100319.69;;;26.43;32.34
51178;BME280;37243;49.814;8.652;2022-12-07T01:26:32;100320.47;;;26.44;32.62
51178;BME280;37243;49.814;8.652;2022-12-07T01:29:00;100323.56;;;26.42;32.07
51178;BME280;37243;49.814;8.652;2022-12-07T01:31:31;100326.31;;;26.42;31.99
51178;BME280;37243;49.814;8.652;2022-12-07T01:34:00;100326.78;;;26.44;32.12
51178;BME280;37243;49.814;8.652;2022-12-07T01:36:29;100327.59;;;26.45;32.52
51178;BME280;37243;49.814;8.652;2022-12-07T01:39:01;100322.09;;;26.45;32.32
51178;BME280;37243;49.814;8.652;2022-12-07T01:41:31;100324.50;;;26.46;32.51
51178;BME280;37243;49.814;8.652;2022-12-07T01:44:13;100331.47;;;26.44;32.66
51178;BME280;37243;49.814;8.652;2022-12-07T01:46:45;100329.06;;;26.42;32.33
51178;BME280;37243;49.814;8.652;2022-12-07T01:49:17;100345.72;;;26.46;32.32
51178;BME280;37243;49.814;8.652;2022-12-07T01:51:47;100335.03;;;26.44;32.09
51178;BME280;37243;49.814;8.652;2022-12-07T01:54:17;100333.91;;;26.45;32.72
51178;BME280;37243;49.814;8.652;2022-12-07T01:56:50;100332.28;;;26.44;32.49
51178;BME280;37243;49.814;8.652;2022-12-07T01:59:21;100331.16;;;26.45;32.51
51178;BME280;37243;49.814;8.652;2022-12-07T02:01:54;100336.97;;;26.44;32.59
51178;BME280;37243;49.814;8.652;2022-12-07T02:04:23;100339.41;;;26.45;32.03
51178;BME280;37243;49.814;8.652;2022-12-07T02:06:52;100344.56;;;26.47;31.96
51178;BME280;37243;49.814;8.652;2022-12-07T02:09:22;100337.13;;;26.47;32.51
51178;BME280;37243;49.814;8.652;2022-12-07T02:11:51;100336.47;;;26.50;32.53
51178;BME280;37243;49.814;8.652;2022-12-07T02:14:20;100327.91;;;26.52;32.22
51178;BME280;37243;49.814;8.652;2022-12-07T02:17:00;100328.69;;;26.52;32.50
51178;BME280;37243;49.814;8.652;2022-12-07T02:19:58;100325.63;;;26.54;32.19
51178;BME280;37243;49.814;8.652;2022-12-07T02:25:32;100319.00;;;26.55;31.70
51178;BME280;37243;49.814;8.652;2022-12-07T02:28:07;100315.91;;;26.57;32.04
51178;BME280;37243;49.814;8.652;2022-12-07T02:30:46;100297.59;;;26.61;31.98
51178;BME280;37243;49.814;8.652;2022-12-07T02:33:19;100296.13;;;26.63;32.04
51178;BME280;37243;49.814;8.652;2022-12-07T02:35:57;100295.78;;;26.65;32.24
51178;BME280;37243;49.814;8.652;2022-12-07T02:38:32;100296.25;;;26.67;31.90
51178;BME280;37243;49.814;8.652;2022-12-07T02:41:06;100303.06;;;26.69;31.80
51178;BME280;37243;49.814;8.652;2022-12-07T02:43:38;100304.34;;;26.72;31.64
51178;BME280;37243;49.814;8.652;2022-12-07T02:46:12;100308.69;;;26.73;32.19
51178;BME280;37243;49.814;8.652;2022-12-07T02:48:43;100298.19;;;26.75;31.93
51178;BME280;37243;49.814;8.652;2022-12-07T02:51:11;100292.19;;;26.73;31.46
51178;BME280;37243;49.814;8.652;2022-12-07T02:53:41;100294.63;;;26.74;32.23
51178;BME280;37243;49.814;8.652;2022-12-07T02:56:16;100287.03;;;26.71;31.79
51178;BME280;37243;49.814;8.652;2022-12-07T02:58:57;100286.22;;;26.71;32.16
51178;BME280;37243;49.814;8.652;2022-12-07T03:01:40;100288.50;;;26.69;31.47
51178;BME280;37243;49.814;8.652;2022-12-07T03:04:21;100280.56;;;26.67;31.85
51178;BME280;37243;49.814;8.652;2022-12-07T03:06:58;100286.88;;;26.68;31.54
51178;BME280;37243;49.814;8.652;2022-12-07T03:09:33;100287.53;;;26.65;32.10
51178;BME280;37243;49.814;8.652;2022-12-07T03:12:07;100296.94;;;26.64;32.03
51178;BME280;37243;49.814;8.652;2022-12-07T03:14:41;100283.50;;;26.62;32.11
51178;BME280;37243;49.814;8.652;2022-12-07T03:17:19;100292.09;;;26.61;32.26
51178;BME280;37243;49.814;8.652;2022-12-07T03:19:51;100291.59;;;26.59;32.00
51178;BME280;37243;49.814;8.652;2022-12-07T03:22:23;100294.69;;;26.57;31.69
51178;BME280;37243;49.814;8.652;2022-12-07T03:24:56;100284.00;;;26.56;32.25
51178;BME280;37243;49.814;8.652;2022-12-07T03:27:29;100281.59;;;26.54;32.26
51178;BME280;37243;49.814;8.652;2022-12-07T03:30:02;100289.50;;;26.56;32.44
51178;BME280;37243;49.814;8.652;2022-12-07T03:32:36;100289.06;;;26.54;31.77
51178;BME280;37243;49.814;8.652;2022-12-07T03:35:09;100283.06;;;26.52;32.33
51178;BME280;37243;49.814;8.652;2022-12-07T03:37:46;100293.75;;;26.53;32.08
51178;BME280;37243;49.814;8.652;2022-12-07T03:40:23;100286.16;;;26.50;31.83
51178;BME280;37243;49.814;8.652;2022-12-07T03:42:53;100292.94;;;26.52;31.83
51178;BME280;37243;49.814;8.652;2022-12-07T03:45:30;100283.75;;;26.48;32.31
51178;BME280;37243;49.814;8.652;2022-12-07T03:48:07;100285.34;;;26.49;31.88
51178;BME280;37243;49.814;8.652;2022-12-07T03:50:42;100279.81;;;26.49;31.79
51178;BME280;37243;49.814;8.652;2022-12-07T03:53:15;100279.81;;;26.49;31.79
51178;BME280;37243;49.814;8.652;2022-12-07T03:55:52;100285.34;;;26.49;32.15
51178;BME280;37243;49.814;8.652;2022-12-07T03:58:22;100275.81;;;26.47;32.50
51178;BME280;37243;49.814;8.652;2022-12-07T04:00:51;100282.94;;;26.48;32.58
51178;BME280;37243;49.814;8.652;2022-12-07T04:03:22;100272.25;;;26.46;32.51
51178;BME280;37243;49.814;8.652;2022-12-07T04:05:50;100281.31;;;26.47;32.15
51178;BME280;37243;49.814;8.652;2022-12-07T04:08:19;100277.28;;;26.44;32.18
51178;BME280;37243;49.814;8.652;2022-12-07T04:10:47;100284.41;;;26.45;32.46
51178;BME280;37243;49.814;8.652;2022-12-07T04:13:15;100281.19;;;26.43;32.15
51178;BME280;37243;49.814;8.652;2022-12-07T04:15:44;100286.69;;;26.43;31.80
51178;BME280;37243;49.814;8.652;2022-12-07T04:18:12;100282.31;;;26.42;31.82
51178;BME280;37243;49.814;8.652;2022-12-07T04:20:43;100285.06;;;26.42;32.13
51178;BME280;37243;49.814;8.652;2022-12-07T04:23:11;100277.94;;;26.41;31.85
51178;BME280;37243;49.814;8.652;2022-12-07T04:25:40;100283.44;;;26.41;32.07
51178;BME280;37243;49.814;8.652;2022-12-07T04:28:08;100283.44;;;26.41;32.12
51178;BME280;37243;49.814;8.652;2022-12-07T04:30:36;100273.59;;;26.40;31.82
51178;BME280;37243;49.814;8.652;2022-12-07T04:33:05;100269.69;;;26.41;32.22
51178;BME280;37243;49.814;8.652;2022-12-07T04:35:34;100262.59;;;26.40;32.15
51178;BME280;37243;49.814;8.652;2022-12-07T04:38:04;100267.59;;;26.38;32.75
51178;BME280;37243;49.814;8.652;2022-12-07T04:40:33;100272.28;;;26.38;31.92
51178;BME280;37243;49.814;8.652;2022-12-07T04:43:01;100269.22;;;26.39;32.69
51178;BME280;37243;49.814;8.652;2022-12-07T04:45:30;100269.22;;;26.39;32.06
51178;BME280;37243;49.814;8.652;2022-12-07T04:47:58;100268.41;;;26.39;32.49
51178;BME280;37243;49.814;8.652;2022-12-07T04:50:26;100265.66;;;26.39;32.72
51178;BME280;37243;49.814;8.652;2022-12-07T04:52:54;100266.13;;;26.41;32.11
51178;BME280;37243;49.814;8.652;2022-12-07T04:55:25;100263.72;;;26.39;32.14
51178;BME280;37243;49.814;8.652;2022-12-07T04:57:53;100259.03;;;26.40;32.78
51178;BME280;37243;49.814;8.652;2022-12-07T05:00:22;100268.88;;;26.41;32.88
51178;BME280;37243;49.814;8.652;2022-12-07T05:02:50;100265.34;;;26.40;32.79
51178;BME280;37243;49.814;8.652;2022-12-07T05:05:18;100252.84;;;26.43;32.18
51178;BME280;37243;49.814;8.652;2022-12-07T05:07:47;100257.56;;;26.42;32.91
51178;BME280;37243;49.814;8.652;2022-12-07T05:10:15;100260.97;;;26.39;32.02
51178;BME280;37243;49.814;8.652;2022-12-07T05:12:46;100261.44;;;26.41;32.50
51178;BME280;37243;49.814;8.652;2022-12-07T05:15:15;100260.31;;;26.42;32.76
51178;BME280;37243;49.814;8.652;2022-12-07T05:17:43;100261.94;;;26.43;32.61
51178;BME280;37243;49.814;8.652;2022-12-07T05:20:11;100262.00;;;26.56;32.21
51178;BME280;37243;49.814;8.652;2022-12-07T05:22:40;100262.44;;;26.66;32.18
51178;BME280;37243;49.814;8.652;2022-12-07T05:25:08;100258.38;;;26.72;32.37
51178;BME280;37243;49.814;8.652;2022-12-07T05:27:37;100254.81;;;26.72;31.72
51178;BME280;37243;49.814;8.652;2022-12-07T05:30:09;100262.63;;;26.61;31.88
51178;BME280;37243;49.814;8.652;2022-12-07T05:32:37;100253.44;;;26.57;32.18
51178;BME280;37243;49.814;8.652;2022-12-07T05:35:06;100258.31;;;26.52;32.67
51178;BME280;37243;49.814;8.652;2022-12-07T05:37:34;100259.13;;;26.52;32.09
51178;BME280;37243;49.814;8.652;2022-12-07T05:40:04;100255.72;;;26.46;32.29
51178;BME280;37243;49.814;8.652;2022-12-07T05:42:32;100265.34;;;26.40;32.30
51178;BME280;37243;49.814;8.652;2022-12-07T05:45:01;100263.72;;;26.39;32.33
51178;BME280;37243;49.814;8.652;2022-12-07T05:47:31;100261.28;;;26.38;31.95
51178;BME280;37243;49.814;8.652;2022-12-07T05:50:00;100258.22;;;26.39;31.80
51178;BME280;37243;49.814;8.652;2022-12-07T05:52:28;100262.25;;;26.42;32.23
51178;BME280;37243;49.814;8.652;2022-12-07T05:54:56;100261.94;;;26.43;32.49
51178;BME280;37243;49.814;8.652;2022-12-07T05:57:25;100262.25;;;26.42;32.67
51178;BME280;37243;49.814;8.652;2022-12-07T05:59:53;100262.25;;;26.42;32.27
51178;BME280;37243;49.814;8.652;2022-12-07T06:02:19;100258.69;;;26.41;32.22
51178;BME280;37243;49.814;8.652;2022-12-07T06:04:49;100259.84;;;26.40;32.15
51178;BME280;37243;49.814;8.652;2022-12-07T06:07:18;100259.63;;;26.45;32.46
51178;BME280;37243;49.814;8.652;2022-12-07T06:09:46;100261.09;;;26.43;32.33
51178;BME280;37243;49.814;8.652;2022-12-07T06:12:14;100252.50;;;26.44;32.60
51178;BME280;37243;49.814;8.652;2022-12-07T06:14:55;100250.22;;;26.46;32.24
51178;BME280;37243;49.814;8.652;2022-12-07T06:17:23;100249.44;;;26.46;32.24
51178;BME280;37243;49.814;8.652;2022-12-07T06:19:54;100257.69;;;26.46;32.12
51178;BME280;37243;49.814;8.652;2022-12-07T06:22:23;100248.28;;;26.47;31.96
51178;BME280;37243;49.814;8.652;2022-12-07T06:24:51;100261.56;;;26.45;31.98
51178;BME280;37243;49.814;8.652;2022-12-07T06:27:19;100256.88;;;26.45;32.62
51178;BME280;37243;49.814;8.652;2022-12-07T06:29:47;100256.06;;;26.45;31.98
51178;BME280;37243;49.814;8.652;2022-12-07T06:32:16;100263.72;;;26.39;32.48
51178;BME280;37243;49.814;8.652;2022-12-07T06:34:44;100265.00;;;26.42;32.52
51178;BME280;37243;49.814;8.652;2022-12-07T06:37:15;100261.44;;;26.41;31.94
51178;BME280;37243;49.814;8.652;2022-12-07T06:39:43;100263.88;;;26.43;31.80
51178;BME280;37243;49.814;8.652;2022-12-07T06:42:12;100263.53;;;26.44;31.25
51178;BME280;37243;49.814;8.652;2022-12-07T06:44:40;100267.88;;;26.45;29.77
51178;BME280;37243;49.814;8.652;2022-12-07T06:47:08;100264.53;;;26.40;30.73
51178;BME280;37243;49.814;8.652;2022-12-07T06:49:37;100265.34;;;26.40;30.42
51178;BME280;37243;49.814;8.652;2022-12-07T06:52:05;100261.94;;;26.43;30.62
51178;BME280;37243;49.814;8.652;2022-12-07T06:54:36;100265.81;;;26.42;31.33
51178;BME280;37243;49.814;8.652;2022-12-07T06:57:04;100258.47;;;26.46;31.43
51178;BME280;37243;49.814;8.652;2022-12-07T06:59:32;100264.78;;;26.47;31.21
51178;BME280;37243;49.814;8.652;2022-12-07T07:02:01;100264.78;;;26.47;30.92
51178;BME280;37243;49.814;8.652;2022-12-07T07:04:29;100265.59;;;26.47;31.49
51178;BME280;37243;49.814;8.652;2022-12-07T07:06:57;100269.63;;;26.50;31.36
51178;BME280;37243;49.814;8.652;2022-12-07T07:09:26;100272.06;;;26.52;31.13
51178;BME280;37243;49.814;8.652;2022-12-07T07:11:57;100274.00;;;26.51;31.60
51178;BME280;37243;49.814;8.652;2022-12-07T07:14:25;100278.03;;;26.54;30.89
51178;BME280;37243;49.814;8.652;2022-12-07T07:16:53;100280.78;;;26.54;30.96
51178;BME280;37243;49.814;8.652;2022-12-07T07:19:21;100273.19;;;26.50;31.71
51178;BME280;37243;49.814;8.652;2022-12-07T07:21:50;100275.94;;;26.50;31.66
51178;BME280;37243;49.814;8.652;2022-12-07T07:24:18;100274.81;;;26.52;31.12
51178;BME280;37243;49.814;8.652;2022-12-07T07:26:46;100275.94;;;26.50;31.56
51178;BME280;37243;49.814;8.652;2022-12-07T07:29:17;100282.59;;;26.49;31.32
51178;BME280;37243;49.814;8.652;2022-12-07T07:31:46;100277.06;;;26.49;31.42
51178;BME280;37243;49.814;8.652;2022-12-07T07:34:14;100279.81;;;26.49;31.98
51178;BME280;37243;49.814;8.652;2022-12-07T07:36:42;100287.63;;;26.47;31.46
51178;BME280;37243;49.814;8.652;2022-12-07T07:39:10;100289.09;;;26.45;32.13
51178;BME280;37243;49.814;8.652;2022-12-07T07:41:39;100288.28;;;26.44;31.79
51178;BME280;37243;49.814;8.652;2022-12-07T07:44:07;100291.69;;;26.41;32.20
51178;BME280;37243;49.814;8.652;2022-12-07T07:46:38;100286.53;;;26.40;32.35
51178;BME280;37243;49.814;8.652;2022-12-07T07:49:08;100292.34;;;26.38;31.61
51178;BME280;37243;49.814;8.652;2022-12-07T07:51:37;100291.88;;;26.36;31.85
51178;BME280;37243;49.814;8.652;2022-12-07T07:54:05;100289.59;;;26.38;31.70
51178;BME280;37243;49.814;8.652;2022-12-07T07:56:33;100302.22;;;26.39;31.75
51178;BME280;37243;49.814;8.652;2022-12-07T07:59:02;100304.16;;;26.39;32.34
51178;BME280;37243;49.814;8.652;2022-12-07T08:01:30;100293.50;;;26.37;32.12
51178;BME280;37243;49.814;8.652;2022-12-07T08:04:01;100292.69;;;26.37;31.72
51178;BME280;37243;49.814;8.652;2022-12-07T08:06:29;100295.91;;;26.39;32.59
51178;BME280;37243;49.814;8.652;2022-12-07T08:08:57;100295.09;;;26.38;32.35
51178;BME280;37243;49.814;8.652;2022-12-07T08:11:25;100295.91;;;26.39;32.46
51178;BME280;37243;49.814;8.652;2022-12-07T08:13:54;100303.84;;;26.40;31.86
51178;BME280;37243;49.814;8.652;2022-12-07T08:16:22;100291.22;;;26.39;31.90
51178;BME280;37243;49.814;8.652;2022-12-07T08:18:50;100301.41;;;26.39;32.18
51178;BME280;37243;49.814;8.652;2022-12-07T08:21:21;100299.00;;;26.37;32.26
51178;BME280;37243;49.814;8.652;2022-12-07T08:23:49;100306.59;;;26.40;32.23
51178;BME280;37243;49.814;8.652;2022-12-07T08:26:18;100302.53;;;26.38;31.92
51178;BME280;37243;49.814;8.652;2022-12-07T08:28:46;100306.09;;;26.38;31.98
51178;BME280;37243;49.814;8.652;2022-12-07T08:31:16;100316.28;;;26.38;32.36
51178;BME280;37243;49.814;8.652;2022-12-07T08:33:45;100302.22;;;26.39;32.71
51178;BME280;37243;49.814;8.652;2022-12-07T08:36:15;100306.91;;;26.39;32.63
51178;BME280;37243;49.814;8.652;2022-12-07T08:38:46;100304.50;;;26.37;32.85
51178;BME280;37243;49.814;8.652;2022-12-07T08:41:14;100302.06;;;26.36;32.31
51178;BME280;37243;49.814;8.652;2022-12-07T08:43:43;100308.38;;;26.36;32.43
51178;BME280;37243;49.814;8.652;2022-12-07T08:46:15;100311.13;;;26.36;32.40
51178;BME280;37243;49.814;8.652;2022-12-07T08:48:48;100310.00;;;26.37;32.07
51178;BME280;37243;49.814;8.652;2022-12-07T08:51:18;100306.75;;;26.35;32.72
51178;BME280;37243;49.814;8.652;2022-12-07T08:53:50;100306.75;;;26.35;32.12
51178;BME280;37243;49.814;8.652;2022-12-07T08:56:20;100316.63;;;26.36;32.89
51178;BME280;37243;49.814;8.652;2022-12-07T08:58:48;100306.75;;;26.35;32.77
51178;BME280;37243;49.814;8.652;2022-12-07T09:01:17;100306.91;;;26.39;31.98
51178;BME280;37243;49.814;8.652;2022-12-07T09:03:45;100306.09;;;26.38;32.66
51178;BME280;37243;49.814;8.652;2022-12-07T09:06:13;100313.22;;;26.39;32.39
51178;BME280;37243;49.814;8.652;2022-12-07T09:08:45;100305.28;;;26.38;32.12
51178;BME280;37243;49.814;8.652;2022-12-07T09:11:17;100301.75;;;26.37;32.87
51178;BME280;37243;49.814;8.652;2022-12-07T09:13:45;100314.34;;;26.38;32.60
51178;BME280;37243;49.814;8.652;2022-12-07T09:16:15;100317.09;;;26.38;32.16
51178;BME280;37243;49.814;8.652;2022-12-07T09:18:43;100307.72;;;26.39;32.69
51178;BME280;37243;49.814;8.652;2022-12-07T09:21:12;100315.50;;;26.37;32.45
51178;BME280;37243;49.814;8.652;2022-12-07T09:23:41;100315.00;;;26.35;32.43
51178;BME280;37243;49.814;8.652;2022-12-07T09:26:10;100318.91;;;26.34;32.50
51178;BME280;37243;49.814;8.652;2022-12-07T09:28:40;100316.94;;;26.35;32.40
51178;BME280;37243;49.814;8.652;2022-12-07T09:31:09;100318.91;;;26.34;32.17
51178;BME280;37243;49.814;8.652;2022-12-07T09:33:37;100318.56;;;26.36;32.26
51178;BME280;37243;49.814;8.652;2022-12-07T09:36:07;100321.00;;;26.37;32.42
51178;BME280;37243;49.814;8.652;2022-12-07T09:38:35;100315.50;;;26.37;32.55
51178;BME280;37243;49.814;8.652;2022-12-07T09:41:05;100313.88;;;26.36;32.79
51178;BME280;37243;49.814;8.652;2022-12-07T09:43:35;100305.63;;;26.36;32.63
51178;BME280;37243;49.814;8.652;2022-12-07T09:46:09;100306.75;;;26.35;32.22
51178;BME280;37243;49.814;8.652;2022-12-07T09:48:43;100316.63;;;26.36;32.13
51178;BME280;37243;49.814;8.652;2022-12-07T09:51:15;100312.25;;;26.35;32.24
51178;BME280;37243;49.814;8.652;2022-12-07T09:53:45;100317.91;;;26.39;32.84
51178;BME280;37243;49.814;8.652;2022-12-07T09:56:14;100310.00;;;26.37;32.57
51178;BME280;37243;49.814;8.652;2022-12-07T09:58:44;100303.34;;;26.38;32.12
51178;BME280;37243;49.814;8.652;2022-12-07T10:01:17;100299.78;;;26.38;32.83
51178;BME280;37243;49.814;8.652;2022-12-07T10:03:50;100299.78;;;26.38;32.55
51178;BME280;37243;49.814;8.652;2022-12-07T10:06:19;100300.59;;;26.38;32.83
51178;BME280;37243;49.814;8.652;2022-12-07T10:08:47;100302.22;;;26.39;32.59
51178;BME280;37243;49.814;8.652;2022-12-07T10:11:16;100300.28;;;26.40;32.81
51178;BME280;37243;49.814;8.652;2022-12-07T10:13:46;100295.91;;;26.39;32.36
51178;BME280;37243;49.814;8.652;2022-12-07T10:16:37;100294.28;;;26.38;32.60
51178;BME280;37243;49.814;8.652;2022-12-07T10:19:21;100291.88;;;26.36;32.96
51178;BME280;37243;49.814;8.652;2022-12-07T10:22:05;100279.25;;;26.35;32.36
51178;BME280;37243;49.814;8.652;2022-12-07T10:24:33;100282.00;;;26.35;32.52
51178;BME280;37243;49.814;8.652;2022-12-07T10:27:02;100281.69;;;26.37;32.56
51178;BME280;37243;49.814;8.652;2022-12-07T10:29:32;100279.25;;;26.35;32.68
51178;BME280;37243;49.814;8.652;2022-12-07T10:32:28;100276.03;;;26.33;32.69
51178;BME280;37243;49.814;8.652;2022-12-07T10:35:23;100282.00;;;26.35;33.03
51178;BME280;37243;49.814;8.652;2022-12-07T10:37:52;100280.88;;;26.36;32.48
51178;BME280;37243;49.814;8.652;2022-12-07T10:40:28;100269.88;;;26.36;33.06
51178;BME280;37243;49.814;8.652;2022-12-07T10:43:05;100269.88;;;26.36;32.36
51178;BME280;37243;49.814;8.652;2022-12-07T10:45:35;100277.94;;;26.41;32.27
51178;BME280;37243;49.814;8.652;2022-12-07T10:48:09;100270.69;;;26.37;32.65
51178;BME280;37243;49.814;8.652;2022-12-07T10:50:52;100274.72;;;26.39;32.91
51178;BME280;37243;49.814;8.652;2022-12-07T10:53:47;100270.34;;;26.38;32.31
51178;BME280;37243;49.814;8.652;2022-12-07T10:56:39;100260.97;;;26.39;32.78
51178;BME280;37243;49.814;8.652;2022-12-07T10:59:37;100264.53;;;26.40;33.02
51178;BME280;37243;49.814;8.652;2022-12-07T11:02:22;100256.28;;;26.40;32.34
51178;BME280;37243;49.814;8.652;2022-12-07T11:05:04;100255.63;;;26.43;32.35
51178;BME280;37243;49.814;8.652;2022-12-07T11:07:42;100259.16;;;26.43;33.04
51178;BME280;37243;49.814;8.652;2022-12-07T11:10:19;100251.69;;;26.44;32.64
51178;BME280;37243;49.814;8.652;2022-12-07T11:13:00;100240.22;;;26.42;32.51
51178;BME280;37243;49.814;8.652;2022-12-07T11:15:39;100236.34;;;26.43;32.37
51178;BME280;37243;49.814;8.652;2022-12-07T11:18:14;100236.34;;;26.43;32.23
51178;BME280;37243;49.814;8.652;2022-12-07T11:20:53;100234.88;;;26.45;32.31
51178;BME280;37243;49.814;8.652;2022-12-07T11:23:34;100232.09;;;26.54;32.48
51178;BME280;37243;49.814;8.652;2022-12-07T11:26:14;100237.19;;;26.64;32.70
51178;BME280;37243;49.814;8.652;2022-12-07T11:29:07;100226.72;;;26.58;32.39
51178;BME280;37243;49.814;8.652;2022-12-07T11:31:52;100219.13;;;26.55;32.41
51178;BME280;37243;49.814;8.652;2022-12-07T11:34:28;100216.25;;;26.51;32.25
51178;BME280;37243;49.814;8.652;2022-12-07T11:37:09;100213.81;;;26.49;32.21
51178;BME280;37243;49.814;8.652;2022-12-07T11:39:44;100212.06;;;26.45;32.88
51178;BME280;37243;49.814;8.652;2022-12-07T11:42:16;100219.03;;;26.42;32.99
51178;BME280;37243;49.814;8.652;2022-12-07T11:44:50;100211.44;;;26.39;32.74
51178;BME280;37243;49.814;8.652;2022-12-07T11:47:25;100213.22;;;26.35;32.51
51178;BME280;37243;49.814;8.652;2022-12-07T11:50:03;100199.84;;;26.34;32.75
51178;BME280;37243;49.814;8.652;2022-12-07T11:52:43;100206.59;;;26.36;33.08
51178;BME280;37243;49.814;8.652;2022-12-07T11:55:18;100204.81;;;26.40;33.22
51178;BME280;37243;49.814;8.652;2022-12-07T11:57:52;100204.81;;;26.40;32.76
51178;BME280;37243;49.814;8.652;2022-12-07T12:00:23;100201.72;;;26.42;32.34
51178;BME280;37243;49.814;8.652;2022-12-07T12:02:57;100207.56;;;26.40;32.56
51178;BME280;37243;49.814;8.652;2022-12-07T12:05:27;100206.91;;;26.43;32.66
51178;BME280;37243;49.814;8.652;2022-12-07T12:08:05;100199.44;;;26.44;32.71
51178;BME280;37243;49.814;8.652;2022-12-07T12:10:49;100186.03;;;26.42;33.03
51178;BME280;37243;49.814;8.652;2022-12-07T12:13:34;100186.97;;;26.46;32.25
51178;BME280;37243;49.814;8.652;2022-12-07T12:16:34;100186.97;;;26.46;32.58
51178;BME280;37243;49.814;8.652;2022-12-07T12:19:19;100190.06;;;26.45;32.63
51178;BME280;37243;49.814;8.652;2022-12-07T12:21:56;100189.72;;;26.46;32.54
51178;BME280;37243;49.814;8.652;2022-12-07T12:24:31;100180.69;;;26.46;32.60
51178;BME280;37243;49.814;8.652;2022-12-07T12:27:03;100182.94;;;26.44;32.36
51178;BME280;37243;49.814;8.652;2022-12-07T12:29:34;100184.56;;;26.45;32.27
51178;BME280;37243;49.814;8.652;2022-12-07T12:32:13;100179.56;;;26.38;32.89
51178;BME280;37243;49.814;8.652;2022-12-07T12:34:59;100181.66;;;26.41;32.61
51178;BME280;37243;49.814;8.652;2022-12-07T12:37:39;100174.56;;;26.40;33.05
51178;BME280;37243;49.814;8.652;2022-12-07T12:49:54;100154.16;;;26.41;32.93
51178;BME280;37243;49.814;8.652;2022-12-07T12:52:57;100150.59;;;26.41;32.92
51178;BME280;37243;49.814;8.652;2022-12-07T12:55:46;100149.81;;;26.40;32.56
51178;BME280;37243;49.814;8.652;2022-12-07T12:58:32;100151.41;;;26.41;32.19
51178;BME280;37243;49.814;8.652;2022-12-07T13:01:33;100152.69;;;26.44;32.49
51178;BME280;37243;49.814;8.652;2022-12-07T13:04:23;100149.59;;;26.45;32.97
51178;BME280;37243;49.814;8.652;2022-12-07T13:06:52;100141.34;;;26.45;32.32
51178;BME280;37243;49.814;8.652;2022-12-07T13:09:26;100143.66;;;26.43;32.42
51178;BME280;37243;49.814;8.652;2022-12-07T13:12:01;100134.69;;;26.46;32.62
51178;BME280;37243;49.814;8.652;2022-12-07T13:14:55;100136.66;;;26.46;32.27
51178;BME280;37243;49.814;8.652;2022-12-07T13:20:48;100139.06;;;26.47;32.32
51178;BME280;37243;49.814;8.652;2022-12-07T13:23:22;100142.94;;;26.46;32.21
51178;BME280;37243;49.814;8.652;2022-12-07T13:25:59;100143.97;;;26.42;32.68
51178;BME280;37243;49.814;8.652;2022-12-07T13:28:34;100134.91;;;26.41;32.22
51178;BME280;37243;49.814;8.652;2022-12-07T13:31:30;100138.81;;;26.40;33.10
51178;BME280;37243;49.814;8.652;2022-12-07T13:34:01;100135.72;;;26.42;32.75